createdAt,value
2023-05-22T00:00:32.069Z,100122.31
2023-05-22T00:02:04.845Z,100126.00
2023-05-22T00:03:37.370Z,100127.72
2023-05-22T00:05:11.283Z,100112.72
2023-05-22T00:06:43.693Z,100122.25
2023-05-22T00:08:15.615Z,100114.78
2023-05-22T00:09:47.445Z,100124.16
2023-05-22T00:11:19.312Z,100119.16
2023-05-22T00:12:51.289Z,100114.94
2023-05-22T00:14:23.120Z,100116.19
2023-05-22T00:15:55.003Z,100117.44
2023-05-22T00:17:26.890Z,100110.69
2023-05-22T00:19:00.230Z,100114.78
2023-05-22T00:20:32.079Z,100109.59
2023-05-22T00:22:03.998Z,100105.56
2023-05-22T00:23:35.801Z,100106.09
2023-05-22T00:25:08.461Z,100110.19
2023-05-22T00:26:40.325Z,100101.75
2023-05-22T00:28:12.381Z,100105.16
2023-05-22T00:29:44.378Z,100109.41
2023-05-22T00:31:16.807Z,100105.69
2023-05-22T00:32:48.720Z,100101.97
2023-05-22T00:34:21.209Z,100106.38
2023-05-22T00:35:53.092Z,100100.09
2023-05-22T00:37:25.754Z,100110.94
2023-05-22T00:38:57.596Z,100108.53
2023-05-22T00:40:29.487Z,100108.00
2023-05-22T00:42:01.698Z,100106.47
2023-05-22T00:43:34.749Z,100103.22
2023-05-22T00:45:07.429Z,100097.44
2023-05-22T00:46:39.423Z,100095.34
2023-05-22T00:48:12.566Z,100101.22
2023-05-22T00:49:44.616Z,100098.28
2023-05-22T00:51:16.505Z,100091.75
2023-05-22T00:52:48.438Z,100094.25
2023-05-22T00:54:20.545Z,100090.47
2023-05-22T00:55:54.276Z,100098.50
2023-05-22T00:57:27.273Z,100092.00
2023-05-22T00:58:59.498Z,100096.34
2023-05-22T01:00:34.280Z,100103.41
2023-05-22T01:02:06.219Z,100093.31
2023-05-22T01:03:45.351Z,100097.66
2023-05-22T01:05:18.684Z,100093.84
2023-05-22T01:06:51.254Z,100093.59
2023-05-22T01:08:23.883Z,100100.63
2023-05-22T01:09:57.722Z,100102.09
2023-05-22T01:11:41.274Z,100102.81
2023-05-22T01:13:28.157Z,100101.69
2023-05-22T01:15:11.571Z,100102.03
2023-05-22T01:16:55.354Z,100105.44
2023-05-22T01:18:49.523Z,100107.78
2023-05-22T01:20:24.281Z,100103.22
2023-05-22T01:22:27.982Z,100095.50
2023-05-22T01:24:27.685Z,100100.06
2023-05-22T01:26:30.479Z,100101.66
2023-05-22T01:28:29.955Z,100103.88
2023-05-22T01:30:20.455Z,100109.88
2023-05-22T01:31:55.621Z,100105.28
2023-05-22T01:33:33.683Z,100110.53
2023-05-22T01:35:11.108Z,100111.78
2023-05-22T01:36:46.778Z,100122.06
2023-05-22T01:38:19.208Z,100116.34
2023-05-22T01:39:56.047Z,100117.75
2023-05-22T01:41:29.561Z,100119.13
2023-05-22T01:43:01.777Z,100108.28
2023-05-22T01:44:33.622Z,100108.00
2023-05-22T01:46:06.696Z,100113.28
2023-05-22T01:47:38.675Z,100111.41
2023-05-22T01:49:10.887Z,100113.97
2023-05-22T01:50:43.151Z,100107.69
2023-05-22T01:52:27.328Z,100110.56
2023-05-22T01:54:09.456Z,100113.28
2023-05-22T01:56:16.712Z,100114.56
2023-05-22T01:58:00.279Z,100117.44
2023-05-22T01:59:45.666Z,100117.88
2023-05-22T02:01:20.363Z,100116.34
2023-05-22T02:03:17.263Z,100120.31
2023-05-22T02:05:11.475Z,100117.50
2023-05-22T02:06:44.654Z,100115.41
2023-05-22T02:08:17.414Z,100107.88
2023-05-22T02:09:51.745Z,100113.88
2023-05-22T02:11:27.259Z,100107.34
2023-05-22T02:12:59.178Z,100110.66
2023-05-22T02:14:31.842Z,100109.53
2023-05-22T02:16:04.440Z,100111.97
2023-05-22T02:17:43.208Z,100109.16
2023-05-22T02:19:15.753Z,100108.88
2023-05-22T02:20:47.803Z,100108.59
2023-05-22T02:22:19.681Z,100102.94
2023-05-22T02:23:51.633Z,100099.09
2023-05-22T02:25:23.496Z,100097.09
2023-05-22T02:26:55.566Z,100097.69
2023-05-22T02:28:27.718Z,100091.00
2023-05-22T02:29:59.576Z,100105.06
2023-05-22T02:31:31.588Z,100089.41
2023-05-22T02:33:06.133Z,100094.56
2023-05-22T02:34:38.149Z,100096.69
2023-05-22T02:36:13.232Z,100087.44
2023-05-22T02:37:45.154Z,100093.13
2023-05-22T02:39:18.956Z,100092.69
2023-05-22T02:40:51.352Z,100088.56
2023-05-22T02:42:23.764Z,100092.56
2023-05-22T02:43:55.752Z,100093.00
2023-05-22T02:45:28.724Z,100090.69
2023-05-22T02:47:00.822Z,100091.97
2023-05-22T02:48:33.168Z,100089.56
2023-05-22T02:50:05.478Z,100085.44
2023-05-22T02:51:38.988Z,100090.13
2023-05-22T02:53:11.224Z,100085.84
2023-05-22T02:54:43.183Z,100090.66
2023-05-22T02:56:15.984Z,100091.78
2023-05-22T02:57:48.007Z,100088.53
2023-05-22T02:59:19.903Z,100093.22
2023-05-22T03:00:53.152Z,100084.41
2023-05-22T03:02:32.589Z,100089.06
2023-05-22T03:04:05.095Z,100080.34
2023-05-22T03:05:37.165Z,100079.66
2023-05-22T03:07:09.109Z,100084.34
2023-05-22T03:08:43.787Z,100082.75
2023-05-22T03:10:15.830Z,100080.22
2023-05-22T03:11:47.895Z,100084.03
2023-05-22T03:13:20.008Z,100078.75
2023-05-22T03:14:51.932Z,100079.91
2023-05-22T03:16:25.051Z,100079.19
2023-05-22T03:17:57.175Z,100073.78
2023-05-22T03:19:29.517Z,100079.34
2023-05-22T03:21:01.538Z,100083.84
2023-05-22T03:22:33.370Z,100078.47
2023-05-22T03:24:05.671Z,100076.75
2023-05-22T03:25:38.007Z,100076.75
2023-05-22T03:27:09.895Z,100079.47
2023-05-22T03:28:45.241Z,100078.59
2023-05-22T03:30:17.648Z,100069.50
2023-05-22T03:32:00.144Z,100072.09
2023-05-22T03:33:32.135Z,100073.78
2023-05-22T03:35:05.409Z,100074.50
2023-05-22T03:36:37.323Z,100071.81
2023-05-22T03:38:09.865Z,100061.72
2023-05-22T03:39:42.020Z,100071.53
2023-05-22T03:41:31.063Z,100070.38
2023-05-22T03:43:02.955Z,100067.56
2023-05-22T03:44:34.890Z,100068.13
2023-05-22T03:46:07.053Z,100066.16
2023-05-22T03:47:39.109Z,100069.44
2023-05-22T03:49:11.050Z,100060.25
2023-05-22T03:50:42.947Z,100067.91
2023-05-22T03:52:14.872Z,100067.63
2023-05-22T03:53:46.743Z,100068.06
2023-05-22T03:55:19.722Z,100058.81
2023-05-22T03:56:51.744Z,100069.22
2023-05-22T03:58:27.613Z,100069.66
2023-05-22T04:00:06.564Z,100069.25
2023-05-22T04:01:46.756Z,100065.09
2023-05-22T04:03:19.869Z,100071.94
2023-05-22T04:04:51.953Z,100069.66
2023-05-22T04:06:23.915Z,100058.44
2023-05-22T04:07:56.054Z,100064.25
2023-05-22T04:09:28.009Z,100063.84
2023-05-22T04:11:03.405Z,100061.53
2023-05-22T04:12:35.321Z,100063.69
2023-05-22T04:14:07.220Z,100054.28
2023-05-22T04:15:41.762Z,100057.41
2023-05-22T04:17:13.714Z,100060.41
2023-05-22T04:18:45.640Z,100062.53
2023-05-22T04:20:18.258Z,100068.19
2023-05-22T04:21:50.099Z,100068.50
2023-05-22T04:23:22.868Z,100075.88
2023-05-22T04:24:54.724Z,100068.03
2023-05-22T04:26:29.792Z,100071.88
2023-05-22T04:28:04.444Z,100071.97
2023-05-22T04:29:41.749Z,100072.09
2023-05-22T04:31:14.053Z,100076.59
2023-05-22T04:32:46.025Z,100069.44
2023-05-22T04:34:18.671Z,100075.13
2023-05-22T04:35:54.670Z,100081.34
2023-05-22T04:37:28.862Z,100074.16
2023-05-22T04:39:02.717Z,100078.72
2023-05-22T04:40:38.372Z,100074.41
2023-05-22T04:42:10.516Z,100079.88
2023-05-22T04:43:42.998Z,100081.69
2023-05-22T04:45:15.303Z,100073.66
2023-05-22T04:46:47.301Z,100084.44
2023-05-22T04:48:19.679Z,100086.34
2023-05-22T04:49:52.025Z,100089.16
2023-05-22T04:51:23.930Z,100084.34
2023-05-22T04:53:14.570Z,100074.09
2023-05-22T04:55:06.964Z,100084.28
2023-05-22T04:56:57.447Z,100080.84
2023-05-22T04:58:50.088Z,100084.50
2023-05-22T05:00:26.601Z,100081.72
2023-05-22T05:01:58.549Z,100083.53
2023-05-22T05:03:30.750Z,100085.31
2023-05-22T05:05:03.727Z,100085.25
2023-05-22T05:06:36.155Z,100079.31
2023-05-22T05:08:08.327Z,100083.28
2023-05-22T05:09:40.212Z,100084.47
2023-05-22T05:11:12.129Z,100075.00
2023-05-22T05:12:44.250Z,100088.97
2023-05-22T05:14:16.975Z,100079.63
2023-05-22T05:15:49.318Z,100078.59
2023-05-22T05:17:22.571Z,100076.56
2023-05-22T05:18:55.681Z,100073.66
2023-05-22T05:20:28.142Z,100079.09
2023-05-22T05:22:00.816Z,100076.53
2023-05-22T05:23:32.995Z,100082.16
2023-05-22T05:25:05.749Z,100079.75
2023-05-22T05:26:37.949Z,100072.75
2023-05-22T05:28:11.914Z,100079.59
2023-05-22T05:29:45.276Z,100077.19
2023-05-22T05:31:24.477Z,100080.91
2023-05-22T05:33:19.919Z,100082.59
2023-05-22T05:35:10.451Z,100087.66
2023-05-22T05:36:49.490Z,100086.44
2023-05-22T05:38:22.841Z,100085.69
2023-05-22T05:39:54.998Z,100080.50
2023-05-22T05:41:27.443Z,100083.84
2023-05-22T05:43:09.350Z,100088.00
2023-05-22T05:44:41.747Z,100081.88
2023-05-22T05:46:13.691Z,100084.09
2023-05-22T05:47:46.569Z,100086.81
2023-05-22T05:49:19.858Z,100088.84
2023-05-22T05:50:52.654Z,100080.94
2023-05-22T05:52:26.649Z,100077.47
2023-05-22T05:53:58.789Z,100077.56
2023-05-22T05:55:34.534Z,100084.13
2023-05-22T05:57:07.243Z,100075.13
2023-05-22T05:58:39.924Z,100080.84
2023-05-22T06:00:30.909Z,100071.38
2023-05-22T06:02:04.355Z,100075.78
2023-05-22T06:03:38.686Z,100075.13
2023-05-22T06:05:17.813Z,100075.25
2023-05-22T06:06:49.815Z,100077.28
2023-05-22T06:08:42.964Z,100075.09
2023-05-22T06:10:14.939Z,100074.34
2023-05-22T06:12:00.001Z,100080.75
2023-05-22T06:13:31.937Z,100072.81
2023-05-22T06:15:05.674Z,100067.34
2023-05-22T06:16:38.302Z,100069.50
2023-05-22T06:18:10.423Z,100063.59
2023-05-22T06:19:43.455Z,100070.59
2023-05-22T06:21:16.198Z,100063.19
2023-05-22T06:22:48.050Z,100065.91
2023-05-22T06:24:19.886Z,100075.19
2023-05-22T06:25:51.770Z,100071.81
2023-05-22T06:27:24.706Z,100065.66
2023-05-22T06:28:56.956Z,100065.19
2023-05-22T06:30:39.672Z,100065.56
2023-05-22T06:32:16.854Z,100064.44
2023-05-22T06:33:50.465Z,100055.50
2023-05-22T06:35:22.403Z,100055.22
2023-05-22T06:36:54.555Z,100052.41
2023-05-22T06:38:31.837Z,100055.44
2023-05-22T06:40:04.242Z,100063.19
2023-05-22T06:41:43.383Z,100055.63
2023-05-22T06:43:17.567Z,100053.78
2023-05-22T06:45:08.758Z,100051.66
2023-05-22T06:46:50.822Z,100050.38
2023-05-22T06:48:27.638Z,100059.06
2023-05-22T06:50:18.163Z,100057.31
2023-05-22T06:51:51.220Z,100055.13
2023-05-22T06:53:24.068Z,100058.44
2023-05-22T06:54:57.011Z,100060.91
2023-05-22T06:56:28.861Z,100065.28
2023-05-22T06:58:09.669Z,100054.34
2023-05-22T06:59:41.775Z,100049.00
2023-05-22T07:01:49.264Z,100060.06
2023-05-22T07:03:27.424Z,100054.13
2023-05-22T07:05:22.395Z,100056.66
2023-05-22T07:07:01.371Z,100052.13
2023-05-22T07:08:34.378Z,100054.22
2023-05-22T07:10:07.376Z,100051.31
2023-05-22T07:11:40.255Z,100049.53
2023-05-22T07:13:12.771Z,100051.06
2023-05-22T07:14:44.630Z,100044.50
2023-05-22T07:16:17.031Z,100042.84
2023-05-22T07:17:49.533Z,100044.44
2023-05-22T07:19:22.824Z,100040.94
2023-05-22T07:20:54.941Z,100041.06
2023-05-22T07:22:28.342Z,100040.53
2023-05-22T07:24:08.232Z,100032.22
2023-05-22T07:25:43.164Z,100038.88
2023-05-22T07:27:16.378Z,100037.16
2023-05-22T07:28:50.985Z,100036.34
2023-05-22T07:30:22.841Z,100036.94
2023-05-22T07:31:54.940Z,100039.44
2023-05-22T07:33:29.193Z,100037.25
2023-05-22T07:35:02.075Z,100036.72
2023-05-22T07:36:34.961Z,100032.34
2023-05-22T07:38:07.707Z,100032.94
2023-05-22T07:39:40.292Z,100037.69
2023-05-22T07:41:12.409Z,100037.75
2023-05-22T07:42:44.298Z,100036.69
2023-05-22T07:44:17.785Z,100035.41
2023-05-22T07:45:49.663Z,100037.41
2023-05-22T07:47:24.567Z,100036.16
2023-05-22T07:48:56.971Z,100036.19
2023-05-22T07:50:30.683Z,100036.25
2023-05-22T07:52:02.556Z,100029.13
2023-05-22T07:53:34.635Z,100037.56
2023-05-22T07:55:08.732Z,100028.47
2023-05-22T07:56:43.221Z,100025.81
2023-05-22T07:58:15.696Z,100032.28
2023-05-22T07:59:49.539Z,100023.47
2023-05-22T08:01:21.603Z,100029.97
2023-05-22T08:02:53.522Z,100020.28
2023-05-22T08:04:26.422Z,100018.94
2023-05-22T08:05:59.344Z,100017.63
2023-05-22T08:07:33.169Z,100022.13
2023-05-22T08:09:05.269Z,100016.84
2023-05-22T08:12:12.676Z,100017.81
2023-05-22T08:13:44.913Z,100015.94
2023-05-22T08:15:16.865Z,100018.75
2023-05-22T08:16:49.220Z,100014.28
2023-05-22T08:18:22.618Z,100010.66
2023-05-22T08:19:54.574Z,100011.78
2023-05-22T08:21:26.589Z,100006.75
2023-05-22T08:22:59.432Z,100020.69
2023-05-22T08:24:31.597Z,100016.22
2023-05-22T08:26:03.686Z,100017.31
2023-05-22T08:27:35.599Z,100002.19
2023-05-22T08:29:07.610Z,100011.28
2023-05-22T08:30:39.721Z,100008.75
2023-05-22T08:32:11.830Z,100003.03
2023-05-22T08:33:43.749Z,100005.19
2023-05-22T08:35:15.962Z,100009.56
2023-05-22T08:36:50.564Z,100002.28
2023-05-22T08:38:22.609Z,100010.06
2023-05-22T08:39:54.522Z,100008.13
2023-05-22T08:41:26.466Z,99998.66
2023-05-22T08:42:58.714Z,100007.00
2023-05-22T08:44:30.681Z,100002.28
2023-05-22T08:46:06.349Z,99989.53
2023-05-22T08:47:40.975Z,99992.63
2023-05-22T08:49:13.378Z,99995.69
2023-05-22T08:50:48.805Z,99996.25
2023-05-22T08:52:30.093Z,99990.69
2023-05-22T08:54:07.665Z,99981.53
2023-05-22T08:55:39.718Z,99979.91
2023-05-22T08:57:11.944Z,99982.75
2023-05-22T08:58:44.579Z,99978.06
2023-05-22T09:00:17.680Z,99986.72
2023-05-22T09:01:52.575Z,99984.53
2023-05-22T09:03:28.731Z,99977.31
2023-05-22T09:05:02.310Z,99975.91
2023-05-22T09:06:34.368Z,99984.88
2023-05-22T09:08:18.990Z,99975.97
2023-05-22T09:09:52.590Z,99974.88
2023-05-22T09:11:24.754Z,99980.19
2023-05-22T09:13:11.601Z,99986.66
2023-05-22T09:14:44.826Z,99980.25
2023-05-22T09:16:17.260Z,99990.28
2023-05-22T09:17:49.144Z,99979.13
2023-05-22T09:19:21.531Z,99980.53
2023-05-22T09:20:53.427Z,99976.91
2023-05-22T09:22:36.747Z,99982.50
2023-05-22T09:24:10.274Z,99980.81
2023-05-22T09:25:43.373Z,99973.84
2023-05-22T09:27:15.230Z,99978.84
2023-05-22T09:28:47.602Z,99969.66
2023-05-22T09:30:20.409Z,99969.41
2023-05-22T09:31:52.526Z,99967.16
2023-05-22T09:33:24.716Z,99966.81
2023-05-22T09:35:04.337Z,99963.72
2023-05-22T09:36:37.053Z,99974.59
2023-05-22T09:38:10.237Z,99974.00
2023-05-22T09:39:46.480Z,99975.91
2023-05-22T09:41:22.702Z,99971.69
2023-05-22T09:42:54.694Z,99972.13
2023-05-22T09:44:27.184Z,99973.44
2023-05-22T09:46:06.549Z,99975.00
2023-05-22T09:47:38.993Z,99986.56
2023-05-22T09:49:13.242Z,99987.53
2023-05-22T09:50:49.018Z,99977.38
2023-05-22T09:52:22.130Z,99978.34
2023-05-22T09:54:01.599Z,99983.13
2023-05-22T09:55:33.962Z,99985.72
2023-05-22T09:57:09.583Z,99981.28
2023-05-22T09:58:45.214Z,99982.97
2023-05-22T10:00:18.425Z,99978.56
2023-05-22T10:01:51.929Z,99972.44
2023-05-22T10:03:25.092Z,99974.41
2023-05-22T10:04:58.041Z,99973.09
2023-05-22T10:06:31.778Z,99977.38
2023-05-22T10:08:12.965Z,99972.03
2023-05-22T10:09:49.094Z,99972.47
2023-05-22T10:11:22.284Z,99976.41
2023-05-22T10:13:01.154Z,99973.41
2023-05-22T10:14:34.969Z,99976.47
2023-05-22T10:16:08.215Z,99964.38
2023-05-22T10:17:42.372Z,99974.41
2023-05-22T10:19:14.782Z,99970.84
2023-05-22T10:20:49.322Z,99964.28
2023-05-22T10:22:22.920Z,99956.31
2023-05-22T10:23:55.662Z,99966.41
2023-05-22T10:25:27.535Z,99953.59
2023-05-22T10:26:59.812Z,99951.06
2023-05-22T10:28:40.020Z,99952.72
2023-05-22T10:30:29.262Z,99959.22
2023-05-22T10:32:45.324Z,99962.09
2023-05-22T10:34:28.759Z,99967.69
2023-05-22T10:36:20.255Z,99965.22
2023-05-22T10:37:54.998Z,99958.03
2023-05-22T10:39:43.396Z,99957.75
2023-05-22T10:41:16.994Z,99943.00
2023-05-22T10:42:48.857Z,99947.03
2023-05-22T10:44:22.527Z,99947.19
2023-05-22T10:46:03.249Z,99951.47
2023-05-22T10:47:35.275Z,99951.66
2023-05-22T10:49:07.508Z,99952.56
2023-05-22T10:50:40.466Z,99942.75
2023-05-22T10:52:15.120Z,99944.50
2023-05-22T10:53:58.002Z,99945.19
2023-05-22T10:55:29.877Z,99941.69
2023-05-22T10:57:17.154Z,99944.34
2023-05-22T10:59:05.442Z,99940.66
2023-05-22T11:00:38.135Z,99930.28
2023-05-22T11:02:40.007Z,99942.41
2023-05-22T11:04:12.426Z,99931.50
2023-05-22T11:05:53.064Z,99921.59
2023-05-22T11:07:24.933Z,99925.25
2023-05-22T11:08:57.772Z,99930.88
2023-05-22T11:10:52.140Z,99920.91
2023-05-22T11:12:24.920Z,99921.81
2023-05-22T11:14:06.162Z,99917.59
2023-05-22T11:15:45.512Z,99922.84
2023-05-22T11:17:41.728Z,99916.16
2023-05-22T11:19:23.189Z,99923.66
2023-05-22T11:20:56.054Z,99916.97
2023-05-22T11:22:45.056Z,99913.00
2023-05-22T11:24:18.444Z,99914.34
2023-05-22T11:25:50.518Z,99917.41
2023-05-22T11:27:22.437Z,99903.47
2023-05-22T11:28:54.487Z,99911.78
2023-05-22T11:30:28.081Z,99912.38
2023-05-22T11:32:00.217Z,99897.06
2023-05-22T11:33:32.349Z,99906.50
2023-05-22T11:35:08.751Z,99912.06
2023-05-22T11:36:40.997Z,99903.47
2023-05-22T11:38:12.921Z,99905.47
2023-05-22T11:39:57.932Z,99896.03
2023-05-22T11:41:33.223Z,99896.34
2023-05-22T11:43:05.754Z,99892.44
2023-05-22T11:44:39.481Z,99891.91
2023-05-22T11:46:12.539Z,99890.31
2023-05-22T11:47:45.303Z,99898.13
2023-05-22T11:49:17.502Z,99901.75
2023-05-22T11:50:49.477Z,99889.28
2023-05-22T11:52:21.505Z,99891.28
2023-05-22T11:53:53.410Z,99887.75
2023-05-22T11:55:25.270Z,99883.78
2023-05-22T11:56:57.125Z,99895.16
2023-05-22T11:58:29.873Z,99884.78
2023-05-22T12:00:02.277Z,99894.16
2023-05-22T12:01:43.771Z,99878.00
2023-05-22T12:03:15.648Z,99886.28
2023-05-22T12:04:47.571Z,99877.31
2023-05-22T12:06:19.588Z,99885.94
2023-05-22T12:07:51.509Z,99883.16
2023-05-22T12:09:23.498Z,99882.59
2023-05-22T12:10:55.432Z,99885.72
2023-05-22T12:12:27.302Z,99880.72
2023-05-22T12:14:03.439Z,99875.16
2023-05-22T12:15:35.284Z,99864.88
2023-05-22T12:17:07.129Z,99867.66
2023-05-22T12:18:41.609Z,99871.63
2023-05-22T12:20:14.722Z,99869.97
2023-05-22T12:21:46.650Z,99871.91
2023-05-22T12:23:23.042Z,99864.13
2023-05-22T12:24:55.795Z,99862.53
2023-05-22T12:26:27.615Z,99871.47
2023-05-22T12:27:59.490Z,99865.94
2023-05-22T12:29:31.541Z,99865.16
2023-05-22T12:31:03.375Z,99862.13
2023-05-22T12:32:35.286Z,99856.63
2023-05-22T12:34:08.619Z,99857.78
2023-05-22T12:35:41.618Z,99866.41
2023-05-22T12:37:33.703Z,99852.25
2023-05-22T12:39:18.865Z,99853.69
2023-05-22T12:40:51.472Z,99860.38
2023-05-22T12:42:24.614Z,99854.81
2023-05-22T12:43:56.445Z,99858.72
2023-05-22T12:45:28.309Z,99854.00
2023-05-22T12:47:00.146Z,99850.66
2023-05-22T12:48:31.994Z,99840.34
2023-05-22T12:50:04.052Z,99841.16
2023-05-22T12:51:35.900Z,99842.50
2023-05-22T12:53:07.778Z,99844.16
2023-05-22T12:54:39.615Z,99838.59
2023-05-22T12:56:12.162Z,99846.06
2023-05-22T12:57:44.024Z,99842.47
2023-05-22T12:59:15.839Z,99834.94
2023-05-22T13:00:47.671Z,99834.41
2023-05-22T13:02:19.529Z,99835.31
2023-05-22T13:03:54.317Z,99832.56
2023-05-22T13:05:26.638Z,99834.28
2023-05-22T13:06:58.641Z,99834.03
2023-05-22T13:08:30.479Z,99836.28
2023-05-22T13:10:06.935Z,99827.41
2023-05-22T13:11:39.963Z,99838.53
2023-05-22T13:13:11.991Z,99832.97
2023-05-22T13:14:43.820Z,99824.88
2023-05-22T13:16:15.774Z,99825.19
2023-05-22T13:17:47.688Z,99824.63
2023-05-22T13:19:19.661Z,99822.44
2023-05-22T13:20:52.141Z,99819.16
2023-05-22T13:22:25.134Z,99825.56
2023-05-22T13:23:56.967Z,99813.06
2023-05-22T13:25:28.849Z,99826.16
2023-05-22T13:27:00.726Z,99822.53
2023-05-22T13:28:32.563Z,99820.31
2023-05-22T13:30:05.628Z,99815.31
2023-05-22T13:31:38.134Z,99813.09
2023-05-22T13:33:10.036Z,99806.72
2023-05-22T13:34:42.292Z,99811.72
2023-05-22T13:36:14.361Z,99813.16
2023-05-22T13:37:46.336Z,99803.13
2023-05-22T13:39:18.257Z,99805.38
2023-05-22T13:40:50.137Z,99810.97
2023-05-22T13:42:22.132Z,99801.78
2023-05-22T13:43:54.221Z,99804.84
2023-05-22T13:45:27.417Z,99797.91
2023-05-22T13:46:59.922Z,99796.03
2023-05-22T13:48:31.876Z,99812.19
2023-05-22T13:50:03.890Z,99806.59
2023-05-22T13:51:36.040Z,99801.59
2023-05-22T13:53:07.942Z,99794.94
2023-05-22T13:54:39.792Z,99796.06
2023-05-22T13:56:11.662Z,99799.41
2023-05-22T13:57:43.513Z,99798.31
2023-05-22T13:59:15.348Z,99797.25
2023-05-22T14:00:47.164Z,99800.03
2023-05-22T14:02:20.954Z,99789.44
2023-05-22T14:03:52.882Z,99796.41
2023-05-22T14:05:24.857Z,99788.06
2023-05-22T14:06:56.864Z,99795.00
2023-05-22T14:08:28.715Z,99798.34
2023-05-22T14:10:01.652Z,99779.94
2023-05-22T14:11:34.199Z,99776.91
2023-05-22T14:13:06.112Z,99778.28
2023-05-22T14:14:38.013Z,99774.94
2023-05-22T14:16:09.925Z,99776.31
2023-05-22T14:17:41.980Z,99771.31
2023-05-22T14:19:13.923Z,99781.09
2023-05-22T14:20:46.210Z,99770.50
2023-05-22T14:22:18.070Z,99781.09
2023-05-22T14:23:49.936Z,99773.00
2023-05-22T14:25:21.790Z,99771.06
2023-05-22T14:26:58.183Z,99766.03
2023-05-22T14:28:31.952Z,99766.56
2023-05-22T14:30:04.172Z,99764.88
2023-05-22T14:31:50.511Z,99776.31
2023-05-22T14:33:23.547Z,99772.72
2023-05-22T14:34:55.471Z,99765.44
2023-05-22T14:36:27.313Z,99762.66
2023-05-22T14:37:59.131Z,99776.59
2023-05-22T14:39:31.083Z,99763.78
2023-05-22T14:41:03.188Z,99769.63
2023-05-22T14:42:38.644Z,99766.88
2023-05-22T14:44:10.511Z,99769.38
2023-05-22T14:45:43.897Z,99765.47
2023-05-22T14:47:15.790Z,99754.00
2023-05-22T14:48:47.606Z,99760.94
2023-05-22T14:50:20.760Z,99763.44
2023-05-22T14:51:53.173Z,99758.13
2023-05-22T14:53:25.295Z,99770.66
2023-05-22T14:54:57.158Z,99763.91
2023-05-22T14:56:28.983Z,99772.53
2023-05-22T14:58:00.920Z,99762.50
2023-05-22T14:59:34.069Z,99771.38
2023-05-22T15:01:05.957Z,99755.75
2023-05-22T15:02:38.360Z,99770.53
2023-05-22T15:04:10.255Z,99750.44
2023-05-22T15:05:42.543Z,99761.91
2023-05-22T15:07:14.655Z,99756.34
2023-05-22T15:08:46.520Z,99760.78
2023-05-22T15:10:18.434Z,99753.28
2023-05-22T15:11:51.250Z,99747.72
2023-05-22T15:13:23.129Z,99747.47
2023-05-22T15:14:54.968Z,99753.09
2023-05-22T15:16:27.984Z,99747.78
2023-05-22T15:18:02.939Z,99746.69
2023-05-22T15:19:35.253Z,99748.09
2023-05-22T15:21:07.331Z,99745.31
2023-05-22T15:22:39.977Z,99751.44
2023-05-22T15:24:12.066Z,99740.84
2023-05-22T15:25:45.016Z,99738.06
2023-05-22T15:27:17.540Z,99743.13
2023-05-22T15:28:49.395Z,99734.22
2023-05-22T15:30:23.705Z,99730.91
2023-05-22T15:31:55.661Z,99735.38
2023-05-22T15:33:27.630Z,99735.94
2023-05-22T15:34:59.535Z,99732.31
2023-05-22T15:36:33.069Z,99732.59
2023-05-22T15:38:04.902Z,99735.97
2023-05-22T15:39:36.731Z,99735.91
2023-05-22T15:41:08.609Z,99728.13
2023-05-22T15:42:40.491Z,99732.88
2023-05-22T15:44:12.381Z,99728.94
2023-05-22T15:45:48.529Z,99732.22
2023-05-22T15:47:20.832Z,99721.03
2023-05-22T15:48:52.697Z,99729.63
2023-05-22T15:50:24.558Z,99730.09
2023-05-22T15:51:56.392Z,99725.00
2023-05-22T15:53:28.253Z,99727.69
2023-05-22T15:55:00.490Z,99720.31
2023-05-22T15:56:32.314Z,99724.41
2023-05-22T15:58:06.364Z,99720.16
2023-05-22T15:59:38.208Z,99712.31
2023-05-22T16:01:10.117Z,99713.38
2023-05-22T16:02:42.175Z,99709.16
2023-05-22T16:04:14.070Z,99704.66
2023-05-22T16:05:47.200Z,99711.88
2023-05-22T16:07:20.346Z,99712.09
2023-05-22T16:08:52.268Z,99711.25
2023-05-22T16:10:24.164Z,99714.56
2023-05-22T16:11:56.029Z,99704.81
2023-05-22T16:13:28.297Z,99705.34
2023-05-22T16:15:01.270Z,99705.03
2023-05-22T16:16:34.959Z,99699.19
2023-05-22T16:18:07.570Z,99713.63
2023-05-22T16:19:39.531Z,99702.25
2023-05-22T16:21:11.515Z,99706.44
2023-05-22T16:22:48.498Z,99709.25
2023-05-22T16:24:20.944Z,99695.69
2023-05-22T16:25:52.811Z,99697.97
2023-05-22T16:27:24.650Z,99704.13
2023-05-22T16:28:56.515Z,99695.91
2023-05-22T16:30:28.423Z,99696.19
2023-05-22T16:32:00.383Z,99701.22
2023-05-22T16:33:32.900Z,99700.09
2023-05-22T16:35:05.108Z,99696.19
2023-05-22T16:36:37.384Z,99703.13
2023-05-22T16:38:12.306Z,99697.22
2023-05-22T16:39:46.411Z,99691.63
2023-05-22T16:41:18.259Z,99698.28
2023-05-22T16:42:51.835Z,99694.63
2023-05-22T16:44:23.735Z,99704.28
2023-05-22T16:45:55.745Z,99700.00
2023-05-22T16:47:28.789Z,99707.09
2023-05-22T16:49:00.722Z,99699.69
2023-05-22T16:50:32.963Z,99708.09
2023-05-22T16:52:05.100Z,99713.47
2023-05-22T16:53:38.327Z,99701.31
2023-05-22T16:55:10.772Z,99704.41
2023-05-22T16:56:42.749Z,99701.94
2023-05-22T16:58:14.691Z,99703.03
2023-05-22T16:59:46.921Z,99695.59
2023-05-22T17:01:19.040Z,99698.06
2023-05-22T17:02:51.037Z,99692.72
2023-05-22T17:04:22.937Z,99688.53
2023-05-22T17:05:54.783Z,99691.28
2023-05-22T17:07:26.780Z,99694.22
2023-05-22T17:08:58.646Z,99692.50
2023-05-22T17:10:30.500Z,99690.75
2023-05-22T17:12:02.367Z,99689.81
2023-05-22T17:13:34.194Z,99695.25
2023-05-22T17:15:06.830Z,99687.94
2023-05-22T17:16:39.371Z,99690.56
2023-05-22T17:18:12.102Z,99692.56
2023-05-22T17:19:43.988Z,99689.69
2023-05-22T17:21:17.660Z,99682.53
2023-05-22T17:22:49.566Z,99683.22
2023-05-22T17:24:21.414Z,99684.13
2023-05-22T17:25:53.367Z,99685.03
2023-05-22T17:27:35.514Z,99688.41
2023-05-22T17:29:08.220Z,99692.41
2023-05-22T17:30:44.457Z,99688.56
2023-05-22T17:32:16.374Z,99695.91
2023-05-22T17:33:48.264Z,99694.34
2023-05-22T17:35:20.231Z,99700.63
2023-05-22T17:36:52.085Z,99696.91
2023-05-22T17:38:23.955Z,99694.69
2023-05-22T17:39:55.876Z,99690.72
2023-05-22T17:41:27.993Z,99702.00
2023-05-22T17:43:02.529Z,99700.59
2023-05-22T17:44:34.413Z,99690.91
2023-05-22T17:46:06.667Z,99701.13
2023-05-22T17:47:38.526Z,99700.34
2023-05-22T17:49:10.440Z,99700.16
2023-05-22T17:50:42.483Z,99702.09
2023-05-22T17:52:14.543Z,99703.81
2023-05-22T17:53:46.728Z,99704.72
2023-05-22T17:55:19.110Z,99706.41
2023-05-22T17:56:51.140Z,99701.81
2023-05-22T17:58:22.993Z,99713.91
2023-05-22T17:59:54.816Z,99702.91
2023-05-22T18:01:28.986Z,99708.25
2023-05-22T18:03:01.168Z,99705.28
2023-05-22T18:04:33.113Z,99706.38
2023-05-22T18:06:05.499Z,99703.44
2023-05-22T18:07:37.433Z,99706.00
2023-05-22T18:09:09.491Z,99711.28
2023-05-22T18:10:42.026Z,99707.53
2023-05-22T18:12:30.288Z,99710.88
2023-05-22T18:14:03.362Z,99712.56